createdAt,value
2018-05-16T00:01:42.290Z,19.13
2018-05-16T00:04:10.624Z,19.10
2018-05-16T00:06:38.982Z,19.09
2018-05-16T00:09:07.330Z,18.93
2018-05-16T00:11:35.670Z,18.92
2018-05-16T00:14:04.104Z,18.94
2018-05-16T00:16:33.230Z,18.75
2018-05-16T00:19:01.577Z,18.67
2018-05-16T00:21:30.714Z,18.71
2018-05-16T00:23:59.044Z,18.36
2018-05-16T00:26:27.343Z,18.22
2018-05-16T00:28:56.455Z,18.21
2018-05-16T00:31:24.768Z,18.12
2018-05-16T00:33:53.159Z,18.09
2018-05-16T00:36:21.864Z,18.04
2018-05-16T00:38:50.223Z,18.05
2018-05-16T00:41:18.565Z,18.07
2018-05-16T00:43:46.927Z,18.04
2018-05-16T00:46:15.272Z,17.97
2018-05-16T00:48:43.652Z,18.12
2018-05-16T00:51:29.694Z,18.15
2018-05-16T00:53:58.099Z,18.06
2018-05-16T00:56:26.433Z,17.90
2018-05-16T00:58:55.607Z,18.10
2018-05-16T01:01:24.012Z,17.97
2018-05-16T01:03:53.172Z,18.09
2018-05-16T01:06:21.569Z,17.90
2018-05-16T01:08:49.928Z,17.90
2018-05-16T01:11:18.243Z,17.95
2018-05-16T01:13:47.048Z,18.13
2018-05-16T01:16:15.386Z,17.95
2018-05-16T01:18:43.759Z,17.83
2018-05-16T01:21:12.178Z,17.93
2018-05-16T01:23:41.301Z,17.94
2018-05-16T01:26:09.785Z,18.05
2018-05-16T01:28:38.934Z,17.99
2018-05-16T01:31:08.126Z,18.13
2018-05-16T01:33:36.504Z,18.19
2018-05-16T01:36:05.150Z,18.20
2018-05-16T01:38:33.530Z,18.28
2018-05-16T01:41:01.946Z,18.14
2018-05-16T01:43:30.455Z,18.29
2018-05-16T01:45:59.751Z,18.32
2018-05-16T01:48:28.890Z,18.50
2018-05-16T01:50:57.354Z,18.52
2018-05-16T01:53:25.702Z,18.50
2018-05-16T01:55:54.037Z,18.56
2018-05-16T01:58:22.735Z,18.60
2018-05-16T02:00:51.153Z,18.72
2018-05-16T02:03:19.493Z,18.76
2018-05-16T02:05:47.892Z,18.77
2018-05-16T02:08:16.339Z,18.76
2018-05-16T02:10:44.697Z,18.78
2018-05-16T02:13:13.123Z,18.91
2018-05-16T02:15:41.513Z,18.79
2018-05-16T02:18:09.920Z,18.92
2018-05-16T02:20:38.481Z,18.82
2018-05-16T02:23:06.842Z,18.86
2018-05-16T02:25:35.235Z,18.98
2018-05-16T02:28:03.621Z,18.97
2018-05-16T02:30:31.964Z,18.96
2018-05-16T02:33:00.323Z,19.00
2018-05-16T02:35:28.701Z,18.95
2018-05-16T02:37:57.049Z,19.01
2018-05-16T02:40:26.309Z,19.05
2018-05-16T02:42:55.033Z,19.06
2018-05-16T02:45:23.435Z,19.08
2018-05-16T02:47:51.759Z,19.14
2018-05-16T02:50:20.135Z,19.03
2018-05-16T02:52:48.549Z,18.98
2018-05-16T02:55:16.921Z,18.99
2018-05-16T02:57:45.327Z,18.94
2018-05-16T03:00:14.441Z,18.90
2018-05-16T03:02:42.777Z,18.97
2018-05-16T03:05:11.338Z,18.97
2018-05-16T03:07:39.724Z,18.98
2018-05-16T03:10:08.123Z,18.97
2018-05-16T03:12:36.824Z,18.92
2018-05-16T03:15:06.003Z,18.86
2018-05-16T03:17:34.383Z,18.81
2018-05-16T03:20:02.866Z,18.74
2018-05-16T03:22:31.274Z,18.69
2018-05-16T03:24:59.686Z,18.64
2018-05-16T03:27:28.932Z,18.76
2018-05-16T03:29:58.358Z,18.80
2018-05-16T03:32:27.512Z,18.69
2018-05-16T03:34:55.912Z,18.72
2018-05-16T03:37:24.293Z,18.56
2018-05-16T03:39:52.750Z,18.56
2018-05-16T03:42:21.149Z,18.51
2018-05-16T03:44:49.509Z,18.71
2018-05-16T03:47:17.904Z,18.81
2018-05-16T03:49:46.608Z,18.81
2018-05-16T03:52:15.708Z,18.85
2018-05-16T03:54:44.194Z,18.82
2018-05-16T04:00:41.245Z,18.75
2018-05-16T04:03:27.324Z,18.77
2018-05-16T04:05:55.796Z,18.79
2018-05-16T04:08:24.919Z,18.80
2018-05-16T04:10:53.708Z,18.93
2018-05-16T04:13:22.125Z,18.88
2018-05-16T04:15:50.536Z,18.85
2018-05-16T04:18:18.956Z,18.84
2018-05-16T04:20:48.148Z,18.86
2018-05-16T04:23:16.514Z,19.07
2018-05-16T04:25:44.986Z,19.03
2018-05-16T04:28:13.554Z,19.00
2018-05-16T04:30:41.983Z,19.11
2018-05-16T04:33:10.997Z,19.26
2018-05-16T04:35:40.183Z,19.24
2018-05-16T04:38:08.613Z,19.35
2018-05-16T04:40:37.097Z,19.46
2018-05-16T04:43:05.512Z,19.51
2018-05-16T04:45:33.992Z,19.61
2018-05-16T04:48:02.372Z,19.71
2018-05-16T04:50:30.751Z,19.83
2018-05-16T04:52:59.179Z,19.62
2018-05-16T04:55:28.022Z,19.68
2018-05-16T04:57:56.407Z,19.68
2018-05-16T05:00:24.807Z,19.77
2018-05-16T05:02:53.999Z,19.91
2018-05-16T05:05:23.262Z,19.98
2018-05-16T05:07:51.639Z,20.05
2018-05-16T05:10:20.124Z,20.04
2018-05-16T05:12:48.459Z,20.12
2018-05-16T05:15:16.809Z,20.10
2018-05-16T05:17:46.211Z,20.05
2018-05-16T05:20:15.389Z,20.27
2018-05-16T05:22:44.693Z,20.42
2018-05-16T05:25:13.088Z,20.45
2018-05-16T05:27:41.395Z,20.49
2018-05-16T05:30:09.827Z,20.49
2018-05-16T05:32:38.491Z,20.49
2018-05-16T05:35:06.979Z,20.72
2018-05-16T05:37:35.522Z,20.63
2018-05-16T05:40:04.107Z,20.55
2018-05-16T05:42:33.268Z,20.72
2018-05-16T05:45:02.250Z,20.92
2018-05-16T05:47:30.758Z,21.08
2018-05-16T05:49:59.150Z,21.25
2018-05-16T05:52:27.455Z,21.40
2018-05-16T05:54:55.818Z,21.31
2018-05-16T05:57:24.963Z,21.43
2018-05-16T05:59:53.311Z,21.54
2018-05-16T06:02:21.775Z,21.58
2018-05-16T06:04:50.130Z,21.52
2018-05-16T06:07:19.307Z,21.54
2018-05-16T06:09:47.678Z,21.52
2018-05-16T06:12:16.013Z,21.80
2018-05-16T06:14:45.119Z,22.02
2018-05-16T06:17:13.513Z,22.08
2018-05-16T06:19:41.947Z,22.18
2018-05-16T06:22:10.287Z,22.24
2018-05-16T06:24:39.023Z,22.49
2018-05-16T06:27:08.177Z,22.65
2018-05-16T06:29:37.235Z,22.86
2018-05-16T06:32:05.577Z,22.64
2018-05-16T06:34:33.927Z,22.67
2018-05-16T06:37:03.246Z,22.79
2018-05-16T06:39:31.687Z,22.84
2018-05-16T06:41:59.970Z,22.83
2018-05-16T06:44:28.280Z,23.15
2018-05-16T06:46:57.319Z,23.32
2018-05-16T06:49:25.747Z,23.45
2018-05-16T06:51:54.090Z,23.49
2018-05-16T06:54:22.469Z,23.55
2018-05-16T06:56:50.819Z,23.71
2018-05-16T06:59:19.165Z,23.89
2018-05-16T07:01:47.514Z,23.71
2018-05-16T07:04:15.820Z,23.90
2018-05-16T07:06:44.132Z,24.08
2018-05-16T07:09:12.866Z,24.20
2018-05-16T07:11:41.191Z,24.48
2018-05-16T07:14:09.513Z,24.54
2018-05-16T07:16:37.895Z,24.52
2018-05-16T07:19:06.231Z,24.50
2018-05-16T07:21:34.587Z,24.69
2018-05-16T07:24:02.950Z,24.78
2018-05-16T07:26:31.312Z,24.86
2018-05-16T07:28:59.647Z,24.46
2018-05-16T07:31:28.355Z,24.67
2018-05-16T07:33:56.669Z,24.77
2018-05-16T07:36:24.981Z,24.74
2018-05-16T07:38:53.330Z,24.98
2018-05-16T07:41:21.668Z,25.13
2018-05-16T07:43:49.978Z,25.24
2018-05-16T07:46:18.333Z,25.12
2018-05-16T07:48:47.825Z,25.11
2018-05-16T07:51:16.980Z,25.64
2018-05-16T07:53:45.543Z,25.61
2018-05-16T07:56:13.898Z,25.79
2018-05-16T07:58:42.251Z,26.06
2018-05-16T08:01:10.783Z,26.15
2018-05-16T08:03:39.095Z,26.44
2018-05-16T08:06:07.435Z,26.52
2018-05-16T08:08:35.822Z,26.23
2018-05-16T08:11:04.130Z,26.38
2018-05-16T08:13:33.258Z,26.46
2018-05-16T08:16:02.587Z,26.43
2018-05-16T08:18:30.936Z,26.40
2018-05-16T08:21:00.019Z,26.62
2018-05-16T08:23:28.367Z,26.59
2018-05-16T08:25:56.676Z,26.63
2018-05-16T08:28:24.994Z,26.61
2018-05-16T08:30:53.374Z,26.75
2018-05-16T08:33:21.693Z,26.89
2018-05-16T08:35:50.038Z,26.86
2018-05-16T08:38:18.509Z,26.82
2018-05-16T08:40:46.839Z,26.77
2018-05-16T08:43:15.156Z,26.91
2018-05-16T08:45:43.536Z,27.18
2018-05-16T08:48:12.761Z,27.33
2018-05-16T08:50:41.110Z,27.80
2018-05-16T08:53:10.248Z,27.94
2018-05-16T08:55:38.822Z,28.15
2018-05-16T08:58:07.164Z,28.43
2018-05-16T09:00:36.772Z,28.39
2018-05-16T09:03:05.096Z,28.33
2018-05-16T09:05:33.461Z,28.51
2018-05-16T09:08:01.823Z,28.78
2018-05-16T09:10:30.184Z,29.01
2018-05-16T09:12:59.279Z,29.23
2018-05-16T09:15:28.419Z,29.08
2018-05-16T09:17:56.771Z,28.82
2018-05-16T09:20:25.107Z,28.70
2018-05-16T09:22:53.728Z,28.95
2018-05-16T09:25:22.041Z,29.17
2018-05-16T09:27:50.382Z,29.70
2018-05-16T09:30:19.505Z,30.06
2018-05-16T09:32:47.860Z,30.31
2018-05-16T09:35:16.196Z,30.44
2018-05-16T09:37:44.569Z,30.53
2018-05-16T09:40:12.934Z,30.42
2018-05-16T09:42:41.306Z,30.57
2018-05-16T09:45:09.740Z,30.68
2018-05-16T09:47:38.121Z,30.44
2018-05-16T09:50:06.474Z,30.80
2018-05-16T09:52:34.837Z,31.18
2018-05-16T09:55:03.174Z,31.52
2018-05-16T09:57:31.517Z,31.63
2018-05-16T09:59:59.862Z,30.80
2018-05-16T10:02:28.239Z,31.01
2018-05-16T10:04:56.548Z,31.29
2018-05-16T10:07:25.241Z,31.88
2018-05-16T10:09:53.613Z,31.86
2018-05-16T10:12:21.928Z,31.94
2018-05-16T10:14:50.277Z,32.30
2018-05-16T10:17:18.625Z,32.29
2018-05-16T10:19:46.998Z,32.15
2018-05-16T10:22:15.422Z,32.39
2018-05-16T10:24:43.796Z,32.28
2018-05-16T10:27:12.152Z,32.11
2018-05-16T10:29:40.892Z,32.86
2018-05-16T10:32:09.247Z,32.97
2018-05-16T10:34:37.704Z,32.51
2018-05-16T10:37:12.664Z,32.89
2018-05-16T10:39:41.061Z,33.18
2018-05-16T10:42:10.185Z,33.12
2018-05-16T10:44:38.540Z,33.04
2018-05-16T10:47:06.871Z,33.46
2018-05-16T10:49:35.204Z,32.81
2018-05-16T10:52:04.609Z,33.38
2018-05-16T10:54:33.748Z,33.31
2018-05-16T10:57:02.096Z,33.35
2018-05-16T10:59:31.216Z,33.44
2018-05-16T11:01:59.562Z,33.39
2018-05-16T11:04:28.650Z,33.64
2018-05-16T11:06:56.994Z,33.90
2018-05-16T11:09:25.320Z,34.19
2018-05-16T11:11:54.411Z,34.14
2018-05-16T11:14:23.204Z,33.94
2018-05-16T11:16:51.524Z,33.47
2018-05-16T11:19:19.838Z,33.31
2018-05-16T11:21:48.233Z,33.17
2018-05-16T11:24:16.573Z,33.68
2018-05-16T11:26:44.912Z,33.92
2018-05-16T11:29:13.252Z,34.22
2018-05-16T11:31:41.613Z,34.38
2018-05-16T11:34:09.985Z,34.30
2018-05-16T11:36:38.510Z,33.94
2018-05-16T11:39:07.584Z,33.50
2018-05-16T11:41:35.924Z,33.48
2018-05-16T11:44:04.283Z,32.85
2018-05-16T11:46:32.632Z,32.87
2018-05-16T11:49:00.933Z,32.70
2018-05-16T11:51:30.092Z,33.25
2018-05-16T11:53:58.462Z,33.36
2018-05-16T11:56:26.796Z,32.82
2018-05-16T11:58:55.517Z,33.73
2018-05-16T12:01:23.845Z,34.09
2018-05-16T12:03:52.956Z,33.76
2018-05-16T12:06:21.355Z,33.64
2018-05-16T12:08:49.673Z,33.66
2018-05-16T12:11:18.080Z,33.42
2018-05-16T12:13:46.477Z,33.45
2018-05-16T12:16:14.797Z,33.35
2018-05-16T12:18:43.135Z,33.31
2018-05-16T12:21:12.209Z,33.44
2018-05-16T12:23:41.504Z,33.38
2018-05-16T12:26:10.618Z,32.96
2018-05-16T12:28:38.982Z,33.18
2018-05-16T12:31:08.100Z,33.31
2018-05-16T12:33:36.452Z,33.33
2018-05-16T12:36:04.830Z,33.06
2018-05-16T12:38:33.161Z,32.94
2018-05-16T12:41:01.508Z,32.36
2018-05-16T12:43:32.958Z,32.05
2018-05-16T12:46:02.089Z,31.80
2018-05-16T12:48:30.419Z,31.76
2018-05-16T12:50:58.811Z,31.66
2018-05-16T12:53:27.906Z,31.71
2018-05-16T12:55:57.009Z,31.75
2018-05-16T12:58:26.138Z,31.73
2018-05-16T13:00:54.463Z,31.58
2018-05-16T13:03:22.794Z,31.46
2018-05-16T13:05:51.539Z,31.72
2018-05-16T13:08:20.644Z,31.74
2018-05-16T13:10:49.747Z,31.76
2018-05-16T13:13:18.108Z,31.85
2018-05-16T13:15:47.217Z,32.00
2018-05-16T13:18:15.532Z,32.08
2018-05-16T13:20:43.872Z,32.24
2018-05-16T13:23:12.523Z,32.34
2018-05-16T13:25:40.839Z,31.67
2018-05-16T13:31:19.508Z,32.04
2018-05-16T13:33:47.933Z,32.34
2018-05-16T13:36:16.313Z,32.84
2018-05-16T13:38:44.597Z,32.77
2018-05-16T13:41:12.964Z,32.70
2018-05-16T13:43:41.302Z,32.60
2018-05-16T13:46:09.667Z,32.80
2018-05-16T13:48:38.435Z,32.83
2018-05-16T13:51:06.763Z,32.72
2018-05-16T13:53:35.193Z,32.64
2018-05-16T13:56:03.527Z,32.53
2018-05-16T13:58:31.866Z,31.92
2018-05-16T14:01:00.176Z,32.12
2018-05-16T14:03:28.565Z,32.08
2018-05-16T14:05:56.888Z,31.93
2018-05-16T14:08:25.972Z,31.78
2018-05-16T14:10:54.418Z,31.77
2018-05-16T14:15:57.202Z,31.24
2018-05-16T14:18:25.553Z,30.96
2018-05-16T14:23:56.810Z,30.75
2018-05-16T14:26:25.240Z,31.02
2018-05-16T14:28:53.588Z,30.82
2018-05-16T14:31:22.694Z,30.85
2018-05-16T14:34:04.276Z,30.73
2018-05-16T14:36:36.328Z,30.62
2018-05-16T14:39:05.560Z,30.88
2018-05-16T14:41:33.897Z,30.52
2018-05-16T14:44:02.253Z,30.35
2018-05-16T14:46:30.729Z,30.12
2018-05-16T14:48:59.072Z,30.58
2018-05-16T14:51:27.417Z,30.61
2018-05-16T14:53:55.819Z,30.35
2018-05-16T14:56:24.143Z,30.15
2018-05-16T14:58:52.479Z,30.48
2018-05-16T15:01:20.850Z,30.41
2018-05-16T15:03:49.956Z,30.59
2018-05-16T15:06:18.270Z,30.64
2018-05-16T15:08:47.824Z,30.86
2018-05-16T15:11:16.141Z,31.10
2018-05-16T15:13:45.232Z,31.11
2018-05-16T15:16:13.576Z,30.94
2018-05-16T15:18:42.645Z,30.93
2018-05-16T15:21:10.999Z,31.01
2018-05-16T15:23:39.392Z,31.19
2018-05-16T15:26:07.715Z,31.08
2018-05-16T15:28:36.820Z,31.31
2018-05-16T15:31:05.421Z,31.49
2018-05-16T15:33:33.758Z,31.50
2018-05-16T15:36:02.828Z,31.33
2018-05-16T15:38:31.240Z,30.82
2018-05-16T15:40:59.524Z,30.75
2018-05-16T15:43:28.633Z,31.04
2018-05-16T15:45:57.712Z,31.16
2018-05-16T15:48:26.822Z,30.97
2018-05-16T15:50:55.130Z,30.90
2018-05-16T15:53:23.971Z,30.92
2018-05-16T15:55:53.058Z,30.76
2018-05-16T15:58:21.400Z,30.35
2018-05-16T16:00:49.778Z,30.30
2018-05-16T16:03:18.107Z,29.95
2018-05-16T16:05:46.472Z,29.66
2018-05-16T16:08:14.978Z,29.48
2018-05-16T16:10:43.259Z,29.32
2018-05-16T16:13:12.352Z,29.37
2018-05-16T16:15:41.721Z,29.18
2018-05-16T16:18:10.046Z,29.39
2018-05-16T16:20:38.390Z,29.66
2018-05-16T16:23:06.756Z,29.17
2018-05-16T16:25:35.106Z,28.93
2018-05-16T16:28:03.425Z,29.10
2018-05-16T16:30:31.790Z,29.29
2018-05-16T16:33:00.100Z,29.37
2018-05-16T16:35:28.448Z,28.85
2018-05-16T16:37:56.867Z,29.15
2018-05-16T16:40:25.203Z,28.98
2018-05-16T16:42:53.579Z,28.97
2018-05-16T16:45:21.971Z,28.84
2018-05-16T16:47:50.312Z,28.87
2018-05-16T16:50:18.682Z,28.91
2018-05-16T16:52:47.033Z,28.77
2018-05-16T16:55:16.155Z,28.73
2018-05-16T16:57:44.481Z,28.59
2018-05-16T17:00:13.389Z,28.49
2018-05-16T17:02:41.712Z,28.21
2018-05-16T17:05:10.200Z,28.15
2018-05-16T17:07:38.588Z,28.25
2018-05-16T17:10:06.945Z,28.31
2018-05-16T17:12:35.268Z,28.15
2018-05-16T17:15:04.410Z,28.18
2018-05-16T17:17:32.730Z,28.38
2018-05-16T17:20:01.057Z,28.11
2018-05-16T17:22:29.743Z,27.82
2018-05-16T17:24:58.053Z,27.75
2018-05-16T17:27:26.371Z,27.68
2018-05-16T17:29:54.749Z,27.77
2018-05-16T17:32:23.089Z,27.85
2018-05-16T17:34:51.443Z,27.89
2018-05-16T17:37:20.575Z,27.63
2018-05-16T17:39:48.899Z,27.64
2018-05-16T17:42:17.264Z,27.54
2018-05-16T17:44:45.963Z,27.34
2018-05-16T17:47:15.065Z,27.46
2018-05-16T17:49:44.187Z,27.40
2018-05-16T17:52:12.549Z,27.31
2018-05-16T17:54:41.628Z,27.40
2018-05-16T17:57:09.940Z,27.47
2018-05-16T17:59:38.289Z,27.40
2018-05-16T18:02:07.420Z,27.33
2018-05-16T18:04:35.791Z,27.19
2018-05-16T18:07:04.347Z,27.24
2018-05-16T18:09:33.486Z,27.10
2018-05-16T18:12:01.865Z,27.12
2018-05-16T18:18:02.194Z,26.85
2018-05-16T18:20:30.574Z,26.77
2018-05-16T18:22:58.928Z,26.83
2018-05-16T18:25:27.271Z,26.96
2018-05-16T18:27:56.235Z,26.75
2018-05-16T18:30:24.562Z,26.75
2018-05-16T18:32:52.871Z,26.86
2018-05-16T18:35:21.976Z,26.81
2018-05-16T18:37:51.056Z,26.85
2018-05-16T18:40:19.400Z,26.63
2018-05-16T18:42:47.746Z,26.63
2018-05-16T18:45:16.078Z,26.57
2018-05-16T18:47:44.415Z,26.64
2018-05-16T18:50:12.862Z,26.39
2018-05-16T18:52:42.017Z,26.45
2018-05-16T18:55:10.343Z,26.36
2018-05-16T18:57:39.465Z,26.21
2018-05-16T19:00:07.794Z,26.22
2018-05-16T19:02:36.107Z,26.24
2018-05-16T19:05:04.516Z,25.96
2018-05-16T19:07:32.949Z,25.93
2018-05-16T19:10:01.319Z,25.86
2018-05-16T19:12:29.869Z,25.57
2018-05-16T19:14:58.220Z,25.44
2018-05-16T19:17:26.552Z,25.28
2018-05-16T19:19:54.929Z,25.39
2018-05-16T19:22:23.285Z,25.34
2018-05-16T19:24:51.624Z,25.48
2018-05-16T19:27:20.005Z,25.41
2018-05-16T19:29:48.351Z,25.42
2018-05-16T19:32:16.676Z,25.30
2018-05-16T19:34:45.426Z,25.19
2018-05-16T19:37:13.757Z,25.06
2018-05-16T19:39:42.110Z,25.01
2018-05-16T19:42:10.458Z,24.95
2018-05-16T19:44:38.790Z,24.96
2018-05-16T19:47:07.129Z,24.83
2018-05-16T19:49:35.518Z,24.74
2018-05-16T19:52:04.274Z,24.89
2018-05-16T19:54:32.579Z,24.87
2018-05-16T19:57:02.180Z,24.77
2018-05-16T19:59:30.541Z,24.71
2018-05-16T20:01:58.904Z,24.55
2018-05-16T20:04:27.245Z,24.27
2018-05-16T20:06:55.594Z,24.02
2018-05-16T20:09:24.669Z,24.01
2018-05-16T20:11:53.048Z,24.08
2018-05-16T20:14:21.397Z,24.03
2018-05-16T20:16:49.790Z,23.98
2018-05-16T20:19:18.366Z,23.75
2018-05-16T20:21:46.700Z,23.66
2018-05-16T20:24:15.776Z,23.62
2018-05-16T20:26:44.136Z,23.65
2018-05-16T20:29:12.487Z,23.57
2018-05-16T20:31:40.838Z,23.46
2018-05-16T20:34:09.975Z,23.44
2018-05-16T20:36:38.310Z,23.12
2018-05-16T20:39:06.639Z,23.11
2018-05-16T20:41:35.111Z,22.82
2018-05-16T20:44:03.493Z,22.70
2018-05-16T20:46:31.850Z,22.78
2018-05-16T20:49:00.207Z,22.76
2018-05-16T20:51:30.091Z,22.67
2018-05-16T20:53:58.594Z,22.53
2018-05-16T20:56:27.694Z,22.38
2018-05-16T20:58:56.851Z,22.21
2018-05-16T21:01:25.147Z,22.16
2018-05-16T21:03:53.639Z,22.08
2018-05-16T21:06:21.992Z,22.05
2018-05-16T21:08:50.332Z,21.92
2018-05-16T21:11:18.773Z,21.78
2018-05-16T21:13:47.038Z,21.78
2018-05-16T21:16:15.360Z,21.79
2018-05-16T21:18:43.737Z,21.88
2018-05-16T21:21:12.102Z,21.86
2018-05-16T21:23:41.224Z,21.84
2018-05-16T21:26:09.657Z,21.79
2018-05-16T21:28:38.016Z,21.62
2018-05-16T21:31:06.346Z,21.41
2018-05-16T21:33:34.715Z,21.40
2018-05-16T21:36:03.821Z,21.45
2018-05-16T21:38:33.545Z,21.40
2018-05-16T21:41:01.977Z,21.31
2018-05-16T21:43:30.286Z,21.49
2018-05-16T21:45:59.401Z,21.26
2018-05-16T21:48:27.929Z,21.10
2018-05-16T21:50:56.268Z,21.21
2018-05-16T21:53:24.577Z,21.06
2018-05-16T21:55:52.965Z,20.97
2018-05-16T21:58:21.314Z,20.81
2018-05-16T22:00:49.625Z,20.88
2018-05-16T22:03:17.981Z,20.93
2018-05-16T22:05:46.322Z,20.82
2018-05-16T22:08:15.407Z,20.58
2018-05-16T22:10:44.295Z,20.60
2018-05-16T22:13:12.618Z,20.63
2018-05-16T22:15:40.949Z,20.56
2018-05-16T22:18:09.295Z,20.39
2018-05-16T22:20:37.635Z,20.36
2018-05-16T22:23:05.953Z,20.19
2018-05-16T22:25:34.279Z,20.22
2018-05-16T22:28:03.995Z,20.22
2018-05-16T22:30:38.914Z,20.03
2018-05-16T22:33:13.529Z,20.12
2018-05-16T22:35:47.431Z,20.09
2018-05-16T22:38:21.103Z,20.04
2018-05-16T22:40:54.989Z,19.82
2018-05-16T22:43:23.319Z,19.77
2018-05-16T22:46:02.996Z,19.78
2018-05-16T22:48:32.216Z,19.71
2018-05-16T22:51:00.811Z,19.44
2018-05-16T22:53:29.154Z,19.51
2018-05-16T22:55:58.263Z,19.58
2018-05-16T22:58:26.608Z,19.44
2018-05-16T23:00:55.157Z,19.55
2018-05-16T23:03:23.520Z,19.44
2018-05-16T23:05:51.932Z,19.27
2018-05-16T23:08:20.648Z,19.11
2018-05-16T23:10:49.264Z,19.01
2018-05-16T23:13:17.604Z,19.00
2018-05-16T23:15:45.970Z,19.02
2018-05-16T23:18:14.333Z,18.88
2018-05-16T23:20:42.694Z,18.82
2018-05-16T23:23:11.231Z,19.01
2018-05-16T23:25:39.536Z,18.69
2018-05-16T23:28:07.934Z,18.56
2018-05-16T23:30:36.368Z,18.45
2018-05-16T23:33:04.676Z,18.69
2018-05-16T23:35:34.125Z,18.47
2018-05-16T23:38:02.488Z,18.13
2018-05-16T23:40:30.827Z,18.05
2018-05-16T23:42:59.155Z,18.12
2018-05-16T23:45:27.518Z,18.25
2018-05-16T23:47:55.832Z,18.03
2018-05-16T23:50:24.147Z,17.85
2018-05-16T23:52:53.210Z,17.88
2018-05-16T23:55:21.541Z,17.73
2018-05-16T23:57:49.867Z,17.68
